Time;durP1;ratioP1;P1;durP2;ratioP2;P2;SDS_P1;SDS_P2;PMS_P1;PMS_P2;Temp;Humidity;BMP_temperature;BMP_pressure;BME280_temperature;BME280_humidity;BME280_pressure;Samples;Min_cycle;Max_cycle;Signal;HPM_P1;HPM_P2
2024/04/12 00:01:11;;;;;;;5.60;4.10;;;9.60;99.90;;;;;;5442653;26;20237;-59
2024/04/12 00:03:37;;;;;;;4.40;3.73;;;9.70;99.90;;;;;;5381693;26;20273;-59
2024/04/12 00:06:14;;;;;;;4.67;4.23;;;9.60;99.90;;;;;;5440837;26;20291;-59
2024/04/12 00:08:42;;;;;;;5.93;4.30;;;9.70;99.90;;;;;;5368264;26;20598;-59
2024/04/12 00:11:13;;;;;;;4.23;3.97;;;9.70;99.90;;;;;;5371997;26;20815;-59
2024/04/12 00:13:41;;;;;;;4.80;4.20;;;9.80;99.90;;;;;;5386560;26;20279;-59
2024/04/12 00:16:10;;;;;;;6.27;5.17;;;9.80;99.90;;;;;;5407360;26;20217;-59
2024/04/12 00:18:37;;;;;;;4.87;4.53;;;9.80;99.90;;;;;;5424087;26;20570;-59
2024/04/12 00:21:07;;;;;;;5.00;4.70;;;9.80;99.90;;;;;;5450523;26;20234;-59
2024/04/12 00:23:33;;;;;;;7.33;4.43;;;9.90;99.90;;;;;;5406732;26;20330;-59
2024/04/12 00:26:02;;;;;;;5.50;4.97;;;9.80;99.90;;;;;;5407320;26;20754;-59
2024/04/12 00:28:33;;;;;;;6.17;4.97;;;9.70;99.90;;;;;;5387271;26;20233;-59
2024/04/12 00:31:02;;;;;;;5.37;4.90;;;9.70;99.90;;;;;;5437464;26;20239;-59
2024/04/12 00:33:31;;;;;;;5.93;5.50;;;9.60;99.90;;;;;;5394241;26;20268;-59
2024/04/12 00:36:07;;;;;;;5.70;5.13;;;9.50;99.90;;;;;;5372479;26;20277;-59
2024/04/12 00:38:35;;;;;;;4.87;4.47;;;9.50;99.90;;;;;;5370703;26;20282;-59
2024/04/12 00:41:11;;;;;;;5.60;5.10;;;9.50;99.90;;;;;;5371841;26;20226;-59
2024/04/12 00:44:05;;;;;;;5.43;5.03;;;9.30;99.90;;;;;;5431826;26;20231;-59
2024/04/12 00:46:31;;;;;;;5.47;5.17;;;9.30;99.90;;;;;;5444792;26;20229;-59
2024/04/12 00:49:06;;;;;;;4.63;4.33;;;9.20;99.90;;;;;;5426581;26;20242;-59
2024/04/12 00:51:33;;;;;;;4.97;4.67;;;9.10;99.90;;;;;;5459548;26;20227;-59
2024/04/12 00:54:05;;;;;;;4.97;4.57;;;9.00;99.90;;;;;;5376398;26;20298;-59
2024/04/12 00:56:34;;;;;;;5.57;5.20;;;8.90;99.90;;;;;;5429321;26;20608;-59
2024/04/12 00:59:08;;;;;;;5.70;4.73;;;8.90;99.90;;;;;;5488250;26;20228;-58
2024/04/12 01:01:34;;;;;;;3.93;3.73;;;8.90;99.90;;;;;;5489237;26;20213;-59
2024/04/12 01:04:03;;;;;;;5.40;4.07;;;8.80;99.90;;;;;;5380679;26;20237;-59
2024/04/12 01:06:29;;;;;;;3.60;3.40;;;8.80;99.90;;;;;;5372112;26;20254;-59
2024/04/12 01:09:10;;;;;;;5.47;3.73;;;8.70;99.90;;;;;;5431143;26;20229;-59
2024/04/12 01:11:37;;;;;;;4.57;4.13;;;8.60;99.90;;;;;;5442867;26;20730;-60
2024/04/12 01:14:10;;;;;;;5.10;3.77;;;8.60;99.90;;;;;;5376219;26;20235;-59
2024/04/12 01:16:38;;;;;;;4.30;3.93;;;8.60;99.90;;;;;;5371347;26;20229;-59
2024/04/12 01:19:11;;;;;;;4.80;3.57;;;8.50;99.90;;;;;;5373499;26;20233;-59
2024/04/12 01:21:38;;;;;;;4.13;3.83;;;8.50;99.90;;;;;;5459808;26;20650;-59
2024/04/12 01:24:07;;;;;;;4.60;4.23;;;8.40;99.90;;;;;;5376421;26;20277;-59
2024/04/12 01:26:36;;;;;;;3.93;3.40;;;8.40;99.90;;;;;;5371111;26;20235;-59
2024/04/12 01:29:05;;;;;;;4.10;3.90;;;8.50;99.90;;;;;;5370027;26;20222;-60
2024/04/12 01:31:34;;;;;;;4.17;3.80;;;8.50;99.90;;;;;;5372211;26;20222;-59
2024/04/12 01:34:12;;;;;;;4.27;3.97;;;8.50;99.90;;;;;;5437976;26;20773;-59
2024/04/12 01:36:39;;;;;;;4.53;4.07;;;8.60;99.90;;;;;;5443053;26;20762;-59
2024/04/12 01:39:11;;;;;;;4.23;3.87;;;8.60;99.90;;;;;;5440899;26;21068;-59
2024/04/12 01:41:40;;;;;;;4.83;4.43;;;8.70;99.90;;;;;;5441971;26;20254;-59
2024/04/12 01:44:09;;;;;;;3.47;3.23;;;8.70;99.90;;;;;;5375555;26;20340;-59
2024/04/12 01:46:37;;;;;;;4.87;4.47;;;8.60;99.90;;;;;;5457938;26;20232;-59
2024/04/12 01:49:10;;;;;;;4.33;3.67;;;8.60;99.90;;;;;;5440760;26;20218;-59
2024/04/12 01:51:36;;;;;;;5.63;5.03;;;8.60;99.90;;;;;;5405519;26;20741;-59
2024/04/12 01:54:13;;;;;;;5.70;5.33;;;8.60;99.90;;;;;;5445124;26;20734;-59
2024/04/12 01:56:47;;;;;;;5.50;5.17;;;8.50;99.90;;;;;;5460679;26;20235;-59
2024/04/12 01:59:17;;;;;;;5.23;4.83;;;8.50;99.90;;;;;;5444308;26;20226;-59
2024/04/12 02:01:46;;;;;;;5.03;4.63;;;8.50;99.90;;;;;;5370745;26;20222;-59
2024/04/12 02:04:17;;;;;;;8.00;5.03;;;8.40;99.90;;;;;;5370710;26;20441;-59
2024/04/12 02:06:44;;;;;;;4.93;4.53;;;8.50;99.90;;;;;;5370680;26;20285;-59
2024/04/12 02:09:14;;;;;;;5.90;5.40;;;8.50;99.90;;;;;;5369297;26;20237;-59
2024/04/12 02:11:47;;;;;;;6.00;5.50;;;8.50;99.90;;;;;;5459691;26;20276;-59
2024/04/12 02:14:14;;;;;;;5.20;4.70;;;8.50;99.90;;;;;;5371847;26;20231;-59
2024/04/12 02:16:43;;;;;;;6.97;5.50;;;8.50;99.90;;;;;;5370447;26;20274;-58
2024/04/12 02:19:10;;;;;;;8.03;4.83;;;8.40;99.90;;;;;;5373664;26;20346;-59
2024/04/12 02:21:40;;;;;;;4.80;4.60;;;8.40;99.90;;;;;;5447655;26;20335;-59
2024/04/12 02:24:08;;;;;;;4.97;4.57;;;8.40;99.90;;;;;;5403661;26;20233;-59
2024/04/12 02:26:40;;;;;;;5.23;4.80;;;8.40;99.90;;;;;;5440774;26;20234;-59
2024/04/12 02:29:09;;;;;;;5.80;4.70;;;8.40;99.90;;;;;;5369152;26;20549;-59
2024/04/12 02:31:38;;;;;;;4.80;4.40;;;8.30;99.90;;;;;;5370218;26;20228;-59
2024/04/12 02:34:04;;;;;;;6.40;5.70;;;8.20;99.90;;;;;;5390918;26;20243;-59
2024/04/12 02:36:33;;;;;;;5.87;4.87;;;8.20;99.90;;;;;;5454461;26;20225;-59
2024/04/12 02:39:04;;;;;;;4.43;4.10;;;8.10;99.90;;;;;;5440206;26;20252;-59
2024/04/12 02:41:37;;;;;;;6.07;5.60;;;8.10;99.90;;;;;;5441085;26;20263;-59
2024/04/12 02:44:06;;;;;;;4.80;4.50;;;8.10;99.90;;;;;;5410341;26;20285;-59
2024/04/12 02:46:38;;;;;;;5.47;5.07;;;8.00;99.90;;;;;;5400625;26;20288;-59
2024/04/12 02:49:06;;;;;;;5.93;5.53;;;8.00;99.90;;;;;;5444813;26;20227;-59
2024/04/12 02:51:35;;;;;;;4.73;4.43;;;7.90;99.90;;;;;;5487581;26;20215;-59
2024/04/12 02:54:01;;;;;;;5.47;4.60;;;7.90;99.90;;;;;;5420490;26;20229;-59
2024/04/12 02:56:32;;;;;;;4.63;4.33;;;7.90;99.90;;;;;;5405046;26;20526;-59
2024/04/12 02:58:59;;;;;;;5.03;4.17;;;7.90;99.90;;;;;;5400491;26;20242;-59
2024/04/12 03:01:28;;;;;;;4.73;4.33;;;7.90;99.90;;;;;;5453578;26;20231;-59
2024/04/12 03:03:58;;;;;;;4.43;4.13;;;7.80;99.90;;;;;;5413318;26;20287;-60
2024/04/12 03:06:28;;;;;;;5.60;4.93;;;7.80;99.90;;;;;;5405060;26;20218;-59
2024/04/12 03:08:59;;;;;;;5.27;4.80;;;7.80;99.90;;;;;;5403785;26;20214;-59
2024/04/12 03:11:33;;;;;;;4.03;3.73;;;7.80;99.90;;;;;;5402436;26;20229;-59
2024/04/12 03:14:03;;;;;;;4.23;3.80;;;7.80;99.90;;;;;;5435718;26;20232;-59
2024/04/12 03:16:33;;;;;;;4.70;4.40;;;7.80;99.90;;;;;;5444914;26;20658;-59
2024/04/12 03:19:07;;;;;;;6.40;4.53;;;7.80;99.90;;;;;;5439466;26;20216;-59
2024/04/12 03:21:37;;;;;;;6.00;5.43;;;7.80;99.90;;;;;;5440539;26;20267;-59
2024/04/12 03:24:04;;;;;;;5.03;4.70;;;7.80;99.90;;;;;;5411680;26;20260;-59
2024/04/12 03:26:33;;;;;;;5.30;4.50;;;7.80;99.90;;;;;;5409557;26;20244;-59
2024/04/12 03:29:03;;;;;;;6.10;5.20;;;7.90;99.90;;;;;;5453182;26;20230;-59
2024/04/12 03:31:33;;;;;;;6.50;4.60;;;7.90;99.90;;;;;;5440216;26;20612;-59
2024/04/12 03:34:06;;;;;;;4.57;4.17;;;7.90;99.90;;;;;;5413130;26;20269;-59
2024/04/12 03:36:53;;;;;;;4.70;4.50;;;7.90;99.90;;;;;;5407855;26;20713;-59
2024/04/12 03:39:28;;;;;;;5.70;5.20;;;7.90;99.90;;;;;;5450863;26;20240;-59
2024/04/12 03:42:04;;;;;;;4.43;4.03;;;7.90;99.90;;;;;;5443789;26;20220;-59
2024/04/12 03:44:30;;;;;;;5.40;4.90;;;7.90;99.90;;;;;;5409243;26;20244;-59
2024/04/12 03:47:01;;;;;;;4.83;4.37;;;7.80;99.90;;;;;;5404371;26;20264;-59
2024/04/12 03:49:30;;;;;;;4.67;4.27;;;7.80;99.90;;;;;;5453268;26;20303;-59
2024/04/12 03:51:59;;;;;;;4.97;4.00;;;7.80;99.90;;;;;;5440145;26;20243;-59
2024/04/12 03:54:26;;;;;;;5.57;4.67;;;7.80;99.90;;;;;;5416237;26;20229;-59
2024/04/12 03:56:56;;;;;;;4.70;4.43;;;7.70;99.90;;;;;;5407646;26;20267;-59
2024/04/12 03:59:24;;;;;;;6.37;5.80;;;7.50;99.90;;;;;;5406505;26;20246;-59
2024/04/12 04:01:54;;;;;;;10.00;6.20;;;7.50;99.90;;;;;;5407478;26;20255;-59
2024/04/12 04:04:27;;;;;;;5.53;5.13;;;7.50;99.90;;;;;;5411229;26;20275;-59
2024/04/12 04:06:57;;;;;;;6.47;6.07;;;7.40;99.90;;;;;;5459625;26;20266;-59
2024/04/12 04:09:28;;;;;;;6.00;5.47;;;7.40;99.90;;;;;;5429469;26;20237;-59
2024/04/12 04:11:54;;;;;;;5.83;5.07;;;7.40;99.90;;;;;;5462599;26;20770;-59
2024/04/12 04:14:25;;;;;;;6.67;6.07;;;7.30;99.90;;;;;;5409176;26;20276;-59
2024/04/12 04:16:55;;;;;;;9.03;5.27;;;7.30;99.90;;;;;;5431356;26;20339;-59
2024/04/12 04:19:30;;;;;;;6.43;5.83;;;7.20;99.90;;;;;;5446450;26;20293;-59
2024/04/12 04:22:04;;;;;;;7.53;6.30;;;7.30;99.90;;;;;;5443013;26;20614;-59
2024/04/12 04:24:37;;;;;;;5.47;4.97;;;7.20;99.90;;;;;;5395274;26;20300;-59
2024/04/12 04:27:08;;;;;;;5.67;5.10;;;7.20;99.90;;;;;;5389753;26;20625;-59
2024/04/12 04:29:37;;;;;;;6.00;5.30;;;7.20;99.90;;;;;;5403862;26;20292;-59
2024/04/12 04:32:04;;;;;;;4.43;4.13;;;7.20;99.90;;;;;;5459108;26;20259;-59
2024/04/12 04:34:32;;;;;;;6.00;5.53;;;7.20;99.90;;;;;;5386819;26;21000;-59
2024/04/12 04:37:01;;;;;;;6.17;5.27;;;7.20;99.90;;;;;;5407006;26;20228;-59
2024/04/12 04:39:32;;;;;;;5.23;4.83;;;7.10;99.90;;;;;;5445119;26;20291;-59
2024/04/12 04:41:59;;;;;;;7.03;5.40;;;7.20;99.90;;;;;;5400650;26;20233;-59
2024/04/12 04:44:29;;;;;;;6.03;5.43;;;7.20;99.90;;;;;;5393876;26;20232;-59
2024/04/12 04:46:56;;;;;;;6.07;5.47;;;7.20;99.90;;;;;;5400771;26;20341;-59
2024/04/12 04:49:25;;;;;;;5.60;5.07;;;7.20;99.90;;;;;;5402072;26;20857;-59
2024/04/12 04:51:52;;;;;;;6.67;5.70;;;7.20;99.90;;;;;;5406495;26;20229;-59
2024/04/12 04:54:24;;;;;;;4.97;4.57;;;7.20;99.90;;;;;;5403810;26;20230;-59
2024/04/12 04:56:52;;;;;;;6.07;5.47;;;7.20;99.90;;;;;;5406649;26;20230;-59
2024/04/12 04:59:28;;;;;;;7.33;6.73;;;7.30;99.90;;;;;;5392242;26;20234;-59
2024/04/12 05:01:56;;;;;;;6.73;5.70;;;7.30;99.90;;;;;;5394234;26;20225;-59
2024/04/12 05:04:25;;;;;;;7.17;6.33;;;7.40;99.90;;;;;;5386018;26;20234;-59
2024/04/12 05:06:53;;;;;;;9.20;7.10;;;7.40;99.90;;;;;;5405968;26;20229;-59
2024/04/12 05:09:22;;;;;;;5.97;5.50;;;7.50;99.90;;;;;;5370361;26;20240;-60
2024/04/12 05:11:50;;;;;;;7.50;6.43;;;7.60;99.90;;;;;;5371249;26;20227;-59
2024/04/12 05:17:03;;;;;;;8.53;6.67;;;7.90;99.90;;;;;;5396251;26;20274;-58
2024/04/12 05:19:31;;;;;;;6.77;6.10;;;8.00;99.90;;;;;;5388388;26;20290;-59
2024/04/12 05:22:03;;;;;;;7.10;6.40;;;8.10;99.90;;;;;;5381870;26;20840;-59
2024/04/12 05:24:29;;;;;;;5.83;5.43;;;8.10;99.90;;;;;;5385616;26;20230;-59
2024/04/12 05:27:01;;;;;;;8.93;6.63;;;8.20;99.90;;;;;;5411252;26;20285;-59
2024/04/12 05:29:34;;;;;;;6.47;5.87;;;8.20;99.90;;;;;;5402894;26;20282;-59
2024/04/12 05:32:00;;;;;;;8.77;5.77;;;8.30;99.90;;;;;;5413172;26;20714;-59
2024/04/12 05:34:31;;;;;;;5.17;4.87;;;8.30;99.90;;;;;;5420804;26;20233;-58
2024/04/12 05:37:02;;;;;;;5.77;5.27;;;8.40;99.90;;;;;;5403661;26;20292;-58
2024/04/12 05:39:33;;;;;;;5.60;5.17;;;8.80;99.90;;;;;;5406748;26;20249;-59
2024/04/12 05:42:00;;;;;;;5.77;4.93;;;9.10;99.90;;;;;;5380101;26;20293;-58
2024/04/12 05:44:29;;;;;;;5.47;4.97;;;9.70;99.90;;;;;;5389222;26;20298;-59
2024/04/12 05:46:57;;;;;;;5.17;4.77;;;10.40;99.90;;;;;;5371294;26;20314;-59
2024/04/12 05:49:26;;;;;;;5.80;4.90;;;11.20;99.90;;;;;;5369273;26;20236;-58
2024/04/12 05:51:55;;;;;;;5.97;5.43;;;11.90;99.90;;;;;;5370301;26;20224;-59
2024/04/12 05:54:24;;;;;;;9.33;6.40;;;12.40;99.90;;;;;;5418138;26;20273;-59
2024/04/12 05:56:52;;;;;;;10.30;6.27;;;13.20;99.90;;;;;;5379540;26;20277;-59
2024/04/12 05:59:21;;;;;;;8.00;5.50;;;13.80;99.90;;;;;;5371240;26;20235;-59
2024/04/12 06:01:51;;;;;;;6.63;6.03;;;14.30;99.90;;;;;;5370464;26;20227;-59
2024/04/12 06:04:23;;;;;;;6.87;5.10;;;14.60;99.90;;;;;;5370692;26;20644;-59
2024/04/12 06:06:50;;;;;;;6.57;5.90;;;15.20;99.90;;;;;;5384860;26;20292;-59
2024/04/12 06:09:22;;;;;;;8.13;4.97;;;15.50;99.90;;;;;;5383737;26;20284;-59
2024/04/12 06:11:50;;;;;;;5.27;4.50;;;15.70;99.90;;;;;;5401823;26;20631;-59
2024/04/12 06:14:20;;;;;;;5.20;4.67;;;16.10;99.90;;;;;;5370169;26;20228;-58
2024/04/12 06:16:47;;;;;;;5.47;4.93;;;16.60;99.90;;;;;;5370334;26;20236;-59
2024/04/12 06:19:17;;;;;;;7.77;5.40;;;17.50;99.90;;;;;;5381646;26;20831;-59
2024/04/12 06:21:46;;;;;;;6.40;5.80;;;18.00;99.90;;;;;;5504082;21;20248;-60
2024/04/12 06:24:16;;;;;;;5.63;5.23;;;17.60;99.90;;;;;;5519836;25;20278;-62
2024/04/12 06:26:47;;;;;;;5.43;4.93;;;18.20;99.90;;;;;;5530624;25;20574;-62
2024/04/12 06:29:16;;;;;;;6.53;5.60;;;18.00;99.90;;;;;;5531545;25;20217;-63
2024/04/12 06:31:46;;;;;;;6.97;6.27;;;18.30;99.90;;;;;;5497484;25;20229;-62
2024/04/12 06:34:17;;;;;;;6.50;6.03;;;17.70;99.90;;;;;;5477165;26;20237;-62
2024/04/12 06:36:47;;;;;;;6.10;5.70;;;18.50;99.90;;;;;;5488898;26;20275;-62
2024/04/12 06:39:16;;;;;;;6.17;5.43;;;19.00;99.90;;;;;;5490598;26;20248;-60
2024/04/12 06:41:45;;;;;;;7.23;6.33;;;19.50;99.90;;;;;;5485236;26;20233;-61
2024/04/12 06:44:19;;;;;;;6.27;5.73;;;19.20;99.90;;;;;;5487580;26;20221;-61
2024/04/12 06:46:48;;;;;;;5.23;5.03;;;19.80;99.90;;;;;;5486072;26;20229;-61
2024/04/12 06:49:19;;;;;;;5.93;5.37;;;20.30;99.90;;;;;;5486396;26;20221;-61
2024/04/12 06:54:35;;;;;;;6.27;5.73;;;21.00;99.90;;;;;;5487296;26;20779;-61
2024/04/12 06:57:03;;;;;;;5.40;4.97;;;21.00;99.90;;;;;;5487370;26;20218;-61
2024/04/12 06:59:35;;;;;;;5.90;5.37;;;20.90;99.90;;;;;;5485729;26;20763;-61
2024/04/12 07:02:03;;;;;;;5.30;4.80;;;21.20;99.90;;;;;;5475380;26;20373;-61
2024/04/12 07:04:31;;;;;;;5.80;5.30;;;21.40;99.90;;;;;;5490983;26;20615;-61
2024/04/12 07:07:04;;;;;;;6.97;5.10;;;21.70;99.90;;;;;;5487571;26;20225;-61
2024/04/12 07:09:33;;;;;;;5.83;5.47;;;21.60;99.90;;;;;;5484503;26;20333;-61
2024/04/12 07:12:02;;;;;;;6.10;5.43;;;21.50;99.90;;;;;;5474575;26;20295;-61
2024/04/12 07:14:31;;;;;;;5.13;4.87;;;21.30;99.90;;;;;;5485418;26;20229;-61
2024/04/12 07:16:59;;;;;;;4.90;4.60;;;21.80;99.90;;;;;;5484416;26;20308;-61
2024/04/12 07:19:28;;;;;;;6.70;6.20;;;22.20;99.90;;;;;;5485291;26;20267;-61
2024/04/12 07:21:54;;;;;;;6.03;5.60;;;21.90;99.90;;;;;;5500951;26;20237;-61
2024/04/12 07:24:26;;;;;;;5.33;5.10;;;22.30;99.90;;;;;;5486200;26;20229;-61
2024/04/12 07:26:54;;;;;;;6.00;5.50;;;22.40;99.90;;;;;;5486752;26;20268;-61
2024/04/12 07:29:24;;;;;;;6.30;5.40;;;22.10;99.90;;;;;;5489682;26;20783;-61
2024/04/12 07:31:53;;;;;;;4.70;4.30;;;21.60;99.90;;;;;;5486313;26;20225;-61
2024/04/12 07:34:22;;;;;;;6.43;5.03;;;21.90;99.90;;;;;;5486582;26;20329;-61
2024/04/12 07:36:52;;;;;;;4.73;4.47;;;21.90;99.90;;;;;;5486363;26;20259;-61
2024/04/12 07:39:23;;;;;;;4.33;4.00;;;22.30;99.90;;;;;;5485455;26;20638;-61
2024/04/12 07:41:52;;;;;;;3.77;3.63;;;21.80;99.90;;;;;;5483754;26;20280;-61
2024/04/12 07:44:24;;;;;;;5.43;5.03;;;22.20;99.90;;;;;;5486450;26;20241;-61
2024/04/12 07:46:50;;;;;;;4.73;4.40;;;22.10;99.90;;;;;;5470378;26;20634;-62
2024/04/12 07:49:19;;;;;;;4.13;3.83;;;22.50;99.90;;;;;;5482156;26;20245;-62
2024/04/12 07:51:45;;;;;;;4.13;4.03;;;22.40;99.90;;;;;;5485921;26;20635;-61
2024/04/12 07:54:15;;;;;;;4.97;4.60;;;22.10;99.90;;;;;;5486074;26;20229;-61
2024/04/12 07:56:43;;;;;;;4.60;4.30;;;21.80;99.90;;;;;;5486136;26;20281;-61
2024/04/12 07:59:25;;;;;;;4.47;3.80;;;22.40;99.90;;;;;;5484494;26;20277;-61
2024/04/12 08:01:51;;;;;;;3.47;3.30;;;22.20;99.90;;;;;;5486920;26;20229;-62
2024/04/12 08:04:26;;;;;;;4.13;3.70;;;21.70;99.90;;;;;;5486335;26;20248;-62
2024/04/12 08:06:58;;;;;;;3.53;3.33;;;21.50;99.90;;;;;;5491952;26;20349;-62
2024/04/12 08:09:34;;;;;;;4.80;2.97;;;21.40;99.90;;;;;;5505488;26;20280;-62
2024/04/12 08:12:04;;;;;;;3.83;3.50;;;22.00;99.90;;;;;;5491709;25;20248;-61
2024/04/12 08:14:38;;;;;;;3.73;3.43;;;22.30;99.90;;;;;;5485928;26;20241;-61
2024/04/12 08:17:14;;;;;;;2.50;2.40;;;22.60;99.90;;;;;;5498846;26;20353;-61
2024/04/12 08:19:45;;;;;;;4.23;2.17;;;22.50;99.90;;;;;;5497676;26;20760;-62
2024/04/12 08:22:18;;;;;;;2.90;2.53;;;22.70;99.90;;;;;;5498745;26;20228;-62
2024/04/12 08:24:49;;;;;;;3.23;2.70;;;22.80;99.90;;;;;;5487193;26;20234;-61
2024/04/12 08:27:18;;;;;;;2.53;2.30;;;22.80;99.90;;;;;;5489681;26;20338;-61
2024/04/12 08:29:51;;;;;;;7.87;2.57;;;23.20;99.90;;;;;;5495049;26;20233;-61
2024/04/12 08:32:27;;;;;;;2.30;2.10;;;23.00;99.90;;;;;;5501287;26;20236;-62
2024/04/12 08:34:58;;;;;;;4.67;1.70;;;22.80;99.90;;;;;;5498364;26;20232;-62
2024/04/12 08:37:30;;;;;;;2.13;2.03;;;22.30;99.90;;;;;;5526541;26;20216;-62
2024/04/12 08:40:08;;;;;;;2.47;1.67;;;22.80;99.90;;;;;;5525513;26;20727;-61
2024/04/12 08:42:34;;;;;;;1.93;1.83;;;22.90;99.90;;;;;;5526392;26;20215;-61
2024/04/12 08:45:17;;;;;;;2.33;2.03;;;23.50;99.90;;;;;;5499525;26;20257;-62
2024/04/12 08:47:51;;;;;;;3.83;1.53;;;23.30;99.90;;;;;;5453100;26;20697;-61
2024/04/12 08:50:23;;;;;;;3.30;1.43;;;22.90;99.90;;;;;;5451933;26;20596;-61
2024/04/12 08:52:52;;;;;;;1.77;1.73;;;23.10;99.90;;;;;;5453094;26;20257;-62
2024/04/12 08:55:24;;;;;;;4.13;1.50;;;23.60;99.90;;;;;;5453156;26;20214;-62
2024/04/12 08:57:56;;;;;;;2.53;2.03;;;24.30;99.90;;;;;;5453118;26;20249;-61
2024/04/12 09:00:32;;;;;;;6.13;3.37;;;24.50;99.90;;;;;;5451904;26;20240;-62
2024/04/12 09:03:02;;;;;;;3.83;3.53;;;24.70;99.90;;;;;;5468226;26;20284;-61
2024/04/12 09:05:32;;;;;;;4.47;3.00;;;;;;;;;;5472592;26;20233;-62
2024/04/12 09:08:03;;;;;;;4.03;3.83;;;;;;;;;;5488629;26;20280;-62
2024/04/12 09:10:34;;;;;;;4.40;4.07;;;;;;;;;;5489112;26;20647;-62
2024/04/12 09:13:08;;;;;;;4.87;4.60;;;;;;;;;;5488524;26;20213;-61
2024/04/12 09:15:42;;;;;;;5.37;5.00;;;;;;;;;;5462122;26;20225;-61
2024/04/12 09:18:13;;;;;;;4.77;4.43;;;;;;;;;;5486025;26;20373;-62
2024/04/12 09:20:44;;;;;;;6.00;5.60;;;;;;;;;;5488403;26;20225;-61
2024/04/12 09:23:14;;;;;;;5.17;4.97;;;;;;;;;;5489223;26;20252;-61
2024/04/12 09:25:54;;;;;;;5.87;5.47;;;;;;;;;;5457996;26;20230;-61
2024/04/12 09:28:22;;;;;;;6.70;6.27;;;;;;;;;;5487781;26;20209;-61
2024/04/12 09:33:38;;;;;;;6.40;5.90;;;;;;;;;;5490730;26;20260;-61
2024/04/12 09:36:13;;;;;;;6.73;6.10;;;;;;;;;;5488884;26;20221;-61
2024/04/12 09:38:40;;;;;;;7.33;6.83;;;;;;;;;;5487253;26;20615;-61
2024/04/12 09:41:28;;;;;;;7.63;7.10;;;;;;;;;;5488795;26;20272;-61
2024/04/12 09:43:59;;;;;;;7.30;6.73;;;;;;;;;;5452762;26;20336;-61
2024/04/12 09:46:46;;;;;;;7.88;7.18;;;;;;;;;;5452172;26;20359;-60
2024/04/12 10:39:33;;;;;;;8.37;7.87;;;;;;;;;;5519007;26;20272;-60
2024/04/12 10:42:05;;;;;;;8.73;7.93;;;;;;;;;;5502791;26;20344;-60
2024/04/12 10:44:35;;;;;;;8.27;7.60;;;;;;;;;;5489836;26;20238;-60
2024/04/12 10:47:01;;;;;;;7.23;6.77;;;;;;;;;;5487423;26;20229;-60
2024/04/12 10:49:30;;;;;;;9.30;8.53;;;;;;;;;;5483065;26;20229;-60
2024/04/12 10:51:59;;;;;;;8.37;7.80;;;;;;;;;;5481410;26;20229;-60
2024/04/12 10:54:29;;;;;;;8.37;7.87;;;;;;;;;;5484463;26;20241;-60
2024/04/12 10:56:56;;;;;;;7.33;6.83;;;;;;;;;;5481663;26;20225;-60
2024/04/12 10:59:34;;;;;;;8.70;8.00;;;;;;;;;;5480606;26;20288;-64
2024/04/12 11:02:01;;;;;;;10.07;9.37;;;;;;;;;;5496151;26;20228;-65
2024/04/12 11:05:05;;;;;;;10.20;9.20;;;;;;;;;;5514550;26;20225;-61
2024/04/12 11:07:21;;;;;;;8.23;7.53;;;;;;;;;;5478506;26;20332;-68
2024/04/12 11:09:57;;;;;;;8.37;7.80;;;;;;;;;;5486308;26;20280;-67
2024/04/12 11:12:25;;;;;;;9.80;8.87;;;;;;;;;;5486764;26;20233;-67
2024/04/12 11:15:12;;;;;;;9.97;9.17;;;;;;;;;;5486906;26;20229;-66
2024/04/12 11:31:34;;;;;;;8.60;7.90;;;;;;;;;;5489352;26;20309;-68
2024/04/12 11:34:06;;;;;;;7.27;6.73;;;;;;;;;;5486643;26;20233;-66
2024/04/12 11:36:39;;;;;;;9.97;9.03;;;;;;;;;;5486531;26;20241;-69
2024/04/12 11:39:17;;;;;;;8.73;7.80;;;;;;;;;;5483718;26;20268;-63
2024/04/12 11:41:47;;;;;;;7.83;7.20;;;;;;;;;;5485984;26;20312;-63
2024/04/12 11:44:17;;;;;;;9.33;8.53;;;;;;;;;;5501974;26;20229;-62
2024/04/12 11:46:48;;;;;;;9.20;7.70;;;;;;;;;;5485684;26;20805;-63
2024/04/12 11:49:25;;;;;;;8.53;7.83;;;;;;;;;;5485217;26;20671;-63
2024/04/12 11:51:55;;;;;;;7.07;6.47;;;;;;;;;;5499833;26;20790;-62
2024/04/12 11:54:28;;;;;;;7.90;7.23;;;;;;;;;;5515623;26;20262;-63
2024/04/12 11:56:57;;;;;;;8.87;8.07;;;;;;;;;;5508258;26;20739;-62
2024/04/12 11:59:27;;;;;;;9.93;8.37;;;;;;;;;;5511854;25;20570;-62
2024/04/12 12:01:58;;;;;;;8.90;8.13;;;;;;;;;;5489244;26;20274;-63
2024/04/12 12:04:25;;;;;;;8.17;7.57;;;;;;;;;;5505294;26;20233;-62
2024/04/12 12:06:54;;;;;;;8.97;8.10;;;;;;;;;;5490019;26;20275;-62
2024/04/12 12:09:20;;;;;;;9.00;8.20;;;;;;;;;;5488533;26;20233;-62
2024/04/12 12:11:52;;;;;;;8.97;8.03;;;;;;;;;;5489635;26;20237;-63
2024/04/12 12:14:19;;;;;;;8.97;7.83;;;;;;;;;;5489813;26;20584;-62
2024/04/12 12:16:48;;;;;;;8.10;7.33;;;;;;;;;;5489594;26;20237;-62
2024/04/12 12:19:18;;;;;;;6.83;6.40;;;;;;;;;;5488819;26;20285;-63
2024/04/12 12:21:45;;;;;;;6.87;6.37;;;;;;;;;;5489343;26;20267;-62
2024/04/12 12:24:14;;;;;;;6.90;5.27;;;;;;;;;;5489786;26;20279;-62
2024/04/12 12:26:40;;;;;;;4.20;4.00;;;;;;;;;;5511059;20;20826;-58
2024/04/12 12:29:15;;;;;;;3.53;3.33;;;;;;;;;;5476613;25;20237;-59
2024/04/12 12:31:42;;;;;;;5.20;4.07;;;;;;;;;;5469300;25;20268;-59
2024/04/12 12:34:11;;;;;;;4.60;3.73;;;;;;;;;;5472324;25;20314;-59
2024/04/12 12:36:37;;;;;;;4.97;4.10;;;;;;;;;;5474875;25;20229;-59
2024/04/12 12:39:09;;;;;;;3.80;3.60;;;;;;;;;;5475028;26;20237;-59
2024/04/12 12:41:35;;;;;;;5.70;4.10;;;;;;;;;;5478804;25;20226;-59
2024/04/12 12:44:06;;;;;;;4.10;3.80;;;;;;;;;;5462923;26;20617;-59
2024/04/12 12:46:34;;;;;;;4.20;3.60;;;;;;;;;;5472607;25;20242;-59
2024/04/12 12:49:04;;;;;;;2.97;2.87;;;;;;;;;;5477782;26;20217;-59
2024/04/12 12:51:30;;;;;;;3.30;2.47;;;;;;;;;;5478755;26;20229;-59
2024/04/12 12:54:00;;;;;;;2.23;2.00;;;;;;;;;;5478898;26;20233;-59
2024/04/12 12:56:31;;;;;;;2.67;2.40;;;;;;;;;;5478736;25;20289;-59
2024/04/12 12:59:00;;;;;;;2.63;2.40;;;;;;;;;;5468932;25;20264;-59
2024/04/12 13:01:34;;;;;;;2.73;2.53;;;;;;;;;;5453992;26;20230;-59
2024/04/12 13:04:07;;;;;;;2.03;1.93;;;;;;;;;;5478605;25;20232;-59
2024/04/12 13:06:34;;;;;;;1.57;1.47;;;;;;;;;;5478310;25;20721;-59
2024/04/12 13:09:03;;;;;;;3.80;1.47;;;;;;;;;;5476660;25;20729;-59
2024/04/12 13:11:29;;;;;;;2.43;1.80;;;;;;;;;;5471942;26;20269;-59
2024/04/12 13:13:59;;;;;;;1.50;1.40;;;;;;;;;;5456603;26;20329;-59
2024/04/12 13:16:25;;;;;;;1.87;1.53;;;;;;;;;;5429087;26;20234;-59
2024/04/12 13:18:56;;;;;;;1.63;1.37;;;;;;;;;;5460841;26;20802;-59
2024/04/12 13:21:25;;;;;;;2.20;0.80;;;;;;;;;;5487949;26;20243;-59
2024/04/12 13:23:56;;;;;;;0.97;0.70;;;;;;;;;;5453431;26;20228;-59
2024/04/12 13:26:22;;;;;;;2.93;1.17;;;;;;;;;;5452438;26;20240;-58
2024/04/12 13:28:52;;;;;;;4.23;1.37;;;;;;;;;;5457856;26;20239;-59
2024/04/12 13:31:19;;;;;;;1.60;0.90;;;;;;;;;;5468535;26;20233;-59
2024/04/12 13:33:49;;;;;;;0.97;0.80;;;;;;;;;;5492946;26;20545;-58
2024/04/12 13:36:19;;;;;;;0.67;0.67;;;;;;;;;;5458886;26;20230;-59
2024/04/12 13:38:51;;;;;;;2.43;0.80;;;;;;;;;;5477162;25;20272;-59
2024/04/12 13:41:18;;;;;;;1.53;1.43;;;;;;;;;;5474762;26;20278;-59
2024/04/12 13:43:49;;;;;;;1.77;0.90;;;;;;;;;;5478112;25;20280;-59
2024/04/12 13:51:49;;;;;;;1.70;1.60;;;;;;;;;;5455581;26;20785;-59
2024/04/12 13:54:23;;;;;;;5.63;1.33;;;;;;;;;;5475047;25;20272;-59
2024/04/12 13:56:50;;;;;;;1.17;1.07;;;;;;;;;;5477848;25;20236;-59
2024/04/12 13:59:19;;;;;;;2.90;1.40;;;;;;;;;;5476931;25;20272;-59
2024/04/12 14:01:49;;;;;;;2.77;1.43;;;;;;;;;;5477968;25;20276;-59
2024/04/12 14:04:18;;;;;;;1.33;0.90;;;;;;;;;;5477743;26;20229;-59
2024/04/12 14:06:49;;;;;;;1.67;1.57;;;;;;;;;;5477773;25;20810;-59
2024/04/12 14:09:21;;;;;;;0.80;0.80;;;;;;;;;;5450509;25;20904;-59
2024/04/12 14:11:51;;;;;;;2.33;0.70;;;;;;;;;;5477794;26;20296;-58
2024/04/12 14:14:20;;;;;;;2.40;1.00;;;;;;;;;;5477677;26;20463;-59
2024/04/12 14:16:51;;;;;;;0.80;0.80;;;;;;;;;;5477556;25;20300;-59
2024/04/12 14:19:18;;;;;;;1.77;1.27;;;;;;;;;;5476394;25;20604;-58
2024/04/12 14:21:48;;;;;;;2.80;1.07;;;;;;;;;;5473383;26;20598;-59
2024/04/12 14:27:01;;;;;;;1.17;1.00;;;;;;;;;;5452192;26;20337;-59
2024/04/12 14:29:27;;;;;;;1.57;1.20;;;;;;;;;;5476506;25;20221;-59
2024/04/12 14:31:57;;;;;;;1.40;1.03;;;;;;;;;;5477382;25;20225;-59
2024/04/12 14:34:24;;;;;;;2.53;1.57;;;;;;;;;;5467322;25;20225;-59
2024/04/12 14:36:56;;;;;;;3.20;1.57;;;;;;;;;;5462142;25;20250;-59
2024/04/12 14:39:28;;;;;;;1.67;1.57;;;;;;;;;;5473397;25;20594;-59
2024/04/12 14:42:00;;;;;;;2.63;1.00;;;;;;;;;;5468843;25;20733;-59
2024/04/12 14:44:31;;;;;;;2.30;1.50;;;;;;;;;;5459779;26;20604;-59
2024/04/12 14:47:00;;;;;;;2.47;1.57;;;;;;;;;;5477262;25;20336;-59
2024/04/12 14:49:27;;;;;;;1.10;1.10;;;;;;;;;;5476078;26;20229;-58
2024/04/12 14:51:55;;;;;;;1.00;1.00;;;;;;;;;;5462493;25;20226;-58
2024/04/12 14:54:22;;;;;;;1.17;1.17;;;;;;;;;;5477054;25;20335;-59
2024/04/12 14:56:51;;;;;;;1.90;1.27;;;;;;;;;;5476868;25;20285;-59
2024/04/12 14:59:18;;;;;;;1.97;1.17;;;;;;;;;;5457220;26;20235;-58
2024/04/12 15:01:49;;;;;;;2.20;1.37;;;;;;;;;;5470869;26;20276;-59
2024/04/12 15:48:26;;;;;;;6.67;1.33;;;;;;;;;;5477757;26;20834;-59